createdAt,value
2018-12-24T00:19:45.562Z,71.43
2018-12-24T00:22:17.278Z,70.35
2018-12-24T00:24:49.276Z,70.12
2018-12-24T00:27:19.983Z,69.57
2018-12-24T00:29:52.108Z,69.38
2018-12-24T00:32:22.849Z,69.17
2018-12-24T00:34:55.272Z,68.91
2018-12-24T00:37:25.810Z,68.90
2018-12-24T00:39:57.914Z,68.56
2018-12-24T00:42:30.281Z,69.01
2018-12-24T00:45:02.314Z,69.09
2018-12-24T00:47:34.414Z,69.11
2018-12-24T00:50:06.669Z,68.79
2018-12-24T00:52:38.746Z,68.79
2018-12-24T00:55:11.120Z,69.01
2018-12-24T00:57:41.851Z,68.89
2018-12-24T01:00:14.125Z,68.89
2018-12-24T01:02:46.325Z,69.15
2018-12-24T01:05:17.002Z,68.82
2018-12-24T01:07:49.275Z,69.14
2018-12-24T01:10:20.118Z,69.14
2018-12-24T01:12:51.050Z,69.17
2018-12-24T01:15:23.292Z,69.06
2018-12-24T01:17:55.533Z,69.61
2018-12-24T01:20:27.889Z,69.61
2018-12-24T01:23:00.318Z,69.67
2018-12-24T01:25:32.598Z,69.82
2018-12-24T01:28:04.761Z,69.82
2018-12-24T01:30:37.273Z,69.68
2018-12-24T01:33:08.259Z,69.37
2018-12-24T01:35:39.009Z,69.26
2018-12-24T01:38:11.293Z,69.26
2018-12-24T01:40:43.593Z,69.19
2018-12-24T01:43:15.891Z,68.88
2018-12-24T01:45:48.270Z,68.91
2018-12-24T01:48:19.100Z,69.09
2018-12-24T01:50:51.281Z,69.43
2018-12-24T01:53:22.032Z,69.66
2018-12-24T01:55:54.273Z,69.83
2018-12-24T01:58:26.268Z,69.88
2018-12-24T02:00:57.279Z,69.94
2018-12-24T02:03:28.024Z,69.91
2018-12-24T02:06:00.283Z,70.02
2018-12-24T02:08:32.373Z,70.19
2018-12-24T02:11:04.713Z,69.90
2018-12-24T02:13:37.134Z,70.03
2018-12-24T02:16:08.276Z,70.19
2018-12-24T02:18:39.276Z,70.41
2018-12-24T02:21:10.028Z,70.40
2018-12-24T02:23:42.398Z,70.71
2018-12-24T02:26:15.273Z,70.82
2018-12-24T02:28:46.051Z,70.82
2018-12-24T02:31:16.814Z,71.25
2018-12-24T02:33:49.275Z,71.43
2018-12-24T02:36:20.054Z,71.46
2018-12-24T02:38:52.413Z,71.38
2018-12-24T02:41:24.758Z,71.84
2018-12-24T02:43:57.295Z,71.84
2018-12-24T02:46:29.389Z,71.78
2018-12-24T02:49:01.687Z,71.57
2018-12-24T02:51:34.290Z,71.57
2018-12-24T02:54:06.429Z,71.50
2018-12-24T02:56:38.717Z,71.99
2018-12-24T02:59:10.980Z,71.99
2018-12-24T03:01:43.143Z,72.03
2018-12-24T03:04:13.947Z,72.13
2018-12-24T03:06:46.306Z,72.47
2018-12-24T03:09:18.653Z,73.14
2018-12-24T03:11:50.971Z,73.14
2018-12-24T03:14:23.291Z,72.82
2018-12-24T03:16:54.293Z,73.04
2018-12-24T03:19:25.310Z,73.28
2018-12-24T03:21:57.490Z,73.32
2018-12-24T03:24:29.956Z,73.40
2018-12-24T03:27:02.297Z,73.40
2018-12-24T03:29:34.307Z,73.44
2018-12-24T03:32:05.248Z,73.49
2018-12-24T03:34:36.291Z,73.62
2018-12-24T03:37:08.305Z,73.82
2018-12-24T03:39:39.021Z,74.13
2018-12-24T03:42:11.326Z,74.41
2018-12-24T03:44:42.018Z,74.34
2018-12-24T03:47:14.654Z,74.48
2018-12-24T03:49:47.139Z,74.92
2018-12-24T03:52:18.298Z,74.92
2018-12-24T03:54:49.055Z,74.94
2018-12-24T03:57:21.329Z,74.79
2018-12-24T03:59:53.315Z,74.73
2018-12-24T04:02:24.294Z,74.72
2018-12-24T04:04:57.789Z,74.88
2018-12-24T04:07:29.953Z,74.70
2018-12-24T04:10:02.293Z,74.62
2018-12-24T04:12:34.410Z,74.84
2018-12-24T04:17:49.435Z,74.87
2018-12-24T04:20:21.389Z,74.76
2018-12-24T04:22:53.677Z,74.82
2018-12-24T04:25:26.280Z,74.82
2018-12-24T04:27:57.119Z,74.71
2018-12-24T04:30:27.903Z,74.61
2018-12-24T04:33:00.308Z,74.61
2018-12-24T04:35:32.306Z,74.44
2018-12-24T04:38:03.132Z,74.53
2018-12-24T04:40:34.261Z,74.82
2018-12-24T04:43:05.109Z,74.81
2018-12-24T04:45:37.347Z,74.53
2018-12-24T04:48:08.287Z,74.54
2018-12-24T04:50:38.726Z,74.03
2018-12-24T04:53:11.287Z,73.78
2018-12-24T04:55:41.993Z,73.67
2018-12-24T04:58:14.289Z,73.67
2018-12-24T05:00:46.428Z,73.86
2018-12-24T05:03:18.873Z,73.95
2018-12-24T05:05:51.302Z,73.79
2018-12-24T05:08:23.662Z,74.03
2018-12-24T05:10:55.896Z,74.00
2018-12-24T05:13:28.278Z,73.44
2018-12-24T05:16:00.709Z,73.72
2018-12-24T05:18:33.317Z,73.86
2018-12-24T05:21:05.633Z,74.00
2018-12-24T05:23:37.888Z,74.17
2018-12-24T05:26:10.293Z,74.26
2018-12-24T05:28:42.597Z,74.46
2018-12-24T05:31:14.968Z,74.36
2018-12-24T05:33:47.287Z,74.07
2018-12-24T05:36:19.304Z,73.79
2018-12-24T05:38:50.287Z,73.90
2018-12-24T05:41:21.122Z,73.84
2018-12-24T05:43:51.911Z,73.80
2018-12-24T05:46:24.286Z,74.05
2018-12-24T05:48:55.054Z,74.04
2018-12-24T05:54:14.277Z,74.33
2018-12-24T05:56:46.290Z,74.55
2018-12-24T05:59:17.115Z,74.71
2018-12-24T06:01:49.339Z,75.05
2018-12-24T06:04:22.264Z,75.33
2018-12-24T06:06:53.279Z,75.33
2018-12-24T06:09:24.286Z,75.25
2018-12-24T06:11:56.180Z,75.10
2018-12-24T06:14:27.157Z,74.91
2018-12-24T06:16:58.078Z,74.22
2018-12-24T06:19:30.307Z,73.01
2018-12-24T06:22:02.397Z,72.11
2018-12-24T06:24:34.783Z,70.64
2018-12-24T06:27:07.285Z,70.64
2018-12-24T06:29:38.120Z,70.06
2018-12-24T06:32:08.848Z,69.45
2018-12-24T06:34:41.296Z,69.27
2018-12-24T06:37:12.287Z,69.66
2018-12-24T06:39:43.119Z,69.73
2018-12-24T06:42:13.870Z,69.73
2018-12-24T06:44:46.287Z,70.19
2018-12-24T06:49:28.360Z,70.18
2018-12-24T06:52:00.603Z,70.17
2018-12-24T06:54:32.930Z,70.12
2018-12-24T06:57:05.283Z,70.05
2018-12-24T06:59:37.358Z,70.13
2018-12-24T07:02:08.281Z,69.82
2018-12-24T07:04:40.461Z,69.98
2018-12-24T07:07:12.743Z,69.56
2018-12-24T07:09:45.137Z,69.56
2018-12-24T07:12:17.466Z,69.47
2018-12-24T07:14:49.758Z,69.52
2018-12-24T07:17:22.291Z,69.52
2018-12-24T07:19:53.105Z,69.73
2018-12-24T07:22:25.599Z,69.60
2018-12-24T07:24:57.945Z,69.63
2018-12-24T07:27:32.292Z,69.61
2018-12-24T07:30:03.144Z,69.48
2018-12-24T07:32:35.664Z,69.85
2018-12-24T07:35:08.388Z,69.70
2018-12-24T07:37:40.355Z,69.99
2018-12-24T07:40:11.036Z,69.99
2018-12-24T07:42:43.123Z,69.86
2018-12-24T07:45:13.865Z,70.02
2018-12-24T07:47:45.950Z,70.29
2018-12-24T07:50:17.950Z,70.60
2018-12-24T07:52:50.126Z,70.72
2018-12-24T07:55:22.298Z,70.72
2018-12-24T07:57:53.020Z,70.79
2018-12-24T08:00:25.296Z,70.52
2018-12-24T08:02:57.294Z,70.03
2018-12-24T08:05:29.299Z,69.44
2018-12-24T08:08:00.285Z,69.63
2018-12-24T08:10:32.288Z,69.63
2018-12-24T08:13:03.175Z,69.76
2018-12-24T08:15:34.285Z,69.58
2018-12-24T08:18:05.036Z,69.57
2018-12-24T08:20:37.298Z,70.03
2018-12-24T08:23:08.021Z,69.80
2018-12-24T08:25:40.262Z,69.48
2018-12-24T08:28:11.041Z,69.47
2018-12-24T08:30:43.295Z,69.44
2018-12-24T08:33:15.328Z,69.77
2018-12-24T08:35:47.317Z,71.39
2018-12-24T08:38:19.400Z,71.56
2018-12-24T08:40:51.666Z,69.84
2018-12-24T08:43:23.766Z,69.84
2018-12-24T08:46:04.290Z,69.17
2018-12-24T08:48:58.298Z,69.24
2018-12-24T08:51:48.000Z,69.22
2018-12-24T08:54:34.380Z,69.04
2018-12-24T08:57:22.219Z,69.04
2018-12-24T09:00:09.979Z,68.73
2018-12-24T09:03:04.137Z,67.88
2018-12-24T09:05:43.093Z,67.88
2018-12-24T09:08:32.768Z,67.88
2018-12-24T09:11:09.466Z,68.40
2018-12-24T09:13:59.153Z,68.24
2018-12-24T09:16:43.424Z,68.24
2018-12-24T09:19:24.629Z,68.52
2018-12-24T09:21:58.546Z,68.52
2018-12-24T09:24:31.170Z,68.40
2018-12-24T09:27:16.298Z,67.99
2018-12-24T09:30:15.590Z,67.98
2018-12-24T09:32:50.944Z,68.54
2018-12-24T09:35:30.228Z,68.35
2018-12-24T09:38:08.189Z,68.66
2018-12-24T09:40:43.467Z,69.71
2018-12-24T09:43:15.882Z,69.28
2018-12-24T09:45:50.324Z,69.28
2018-12-24T09:48:24.118Z,68.80
2018-12-24T09:50:57.651Z,68.90
2018-12-24T09:53:29.941Z,69.08
2018-12-24T09:56:06.738Z,68.53
2018-12-24T09:58:54.213Z,68.91
2018-12-24T10:01:30.975Z,68.70
2018-12-24T10:04:23.311Z,68.70
2018-12-24T10:06:59.349Z,68.47
2018-12-24T10:09:33.413Z,69.01
2018-12-24T10:12:05.990Z,69.61
2018-12-24T10:14:40.174Z,69.61
2018-12-24T10:17:16.310Z,69.60
2018-12-24T10:19:50.339Z,69.89
2018-12-24T10:22:31.353Z,70.08
2018-12-24T10:25:10.006Z,70.08
2018-12-24T10:27:48.880Z,69.41
2018-12-24T10:30:19.419Z,69.25
2018-12-24T10:32:59.407Z,68.67
2018-12-24T10:35:41.369Z,68.67
2018-12-24T10:38:16.454Z,68.74
2018-12-24T10:41:19.959Z,68.64
2018-12-24T10:43:57.941Z,68.04
2018-12-24T10:46:33.489Z,68.75
2018-12-24T10:49:16.970Z,68.93
2018-12-24T10:51:56.388Z,69.11
2018-12-24T10:54:39.744Z,68.77
2018-12-24T10:57:25.464Z,68.43
2018-12-24T11:00:04.978Z,68.39
2018-12-24T11:02:42.622Z,68.39
2018-12-24T11:05:17.400Z,68.69
2018-12-24T11:08:04.119Z,67.98
2018-12-24T11:10:54.822Z,67.98
2018-12-24T11:13:48.065Z,68.08
2018-12-24T11:16:22.340Z,67.58
2018-12-24T11:19:00.388Z,67.20
2018-12-24T11:21:32.759Z,67.09
2018-12-24T11:24:10.346Z,66.83
2018-12-24T11:26:50.504Z,67.02
2018-12-24T11:29:26.343Z,67.58
2018-12-24T11:32:09.814Z,67.40
2018-12-24T11:34:41.948Z,67.45
2018-12-24T11:37:17.283Z,67.07
2018-12-24T11:39:49.375Z,67.07
2018-12-24T11:42:22.551Z,66.86
2018-12-24T11:44:54.693Z,66.86
2018-12-24T11:47:28.324Z,66.81
2018-12-24T11:50:02.637Z,67.42
2018-12-24T11:52:35.277Z,67.65
2018-12-24T11:55:10.436Z,67.91
2018-12-24T11:57:56.963Z,68.51
2018-12-24T12:00:33.330Z,68.51
2018-12-24T12:03:12.797Z,68.57
2018-12-24T12:05:45.269Z,68.57
2018-12-24T12:08:18.102Z,68.37
2018-12-24T12:10:51.068Z,68.81
2018-12-24T12:13:23.161Z,68.84
2018-12-24T12:16:02.463Z,68.47
2018-12-24T12:18:29.275Z,68.42
2018-12-24T12:21:07.293Z,68.91
2018-12-24T12:23:43.284Z,68.96
2018-12-24T12:26:23.230Z,68.41
2018-12-24T12:28:57.523Z,68.41
2018-12-24T12:31:38.073Z,68.53
2018-12-24T12:34:18.437Z,68.42
2018-12-24T12:37:06.676Z,67.87
2018-12-24T12:39:54.985Z,67.87
2018-12-24T12:42:33.587Z,67.96
2018-12-24T12:45:20.321Z,67.45
2018-12-24T12:48:07.020Z,67.71
2018-12-24T12:50:55.144Z,67.71
2018-12-24T12:53:35.365Z,68.22
2018-12-24T12:56:12.270Z,67.98
2018-12-24T12:58:46.631Z,68.25
2018-12-24T13:01:34.688Z,68.32
2018-12-24T13:04:21.357Z,68.55
2018-12-24T13:07:20.382Z,67.98
2018-12-24T13:10:20.485Z,67.74
2018-12-24T13:13:13.286Z,67.74
2018-12-24T13:15:59.362Z,67.91
2018-12-24T13:18:33.285Z,67.67
2018-12-24T13:21:05.484Z,67.78
2018-12-24T13:23:53.480Z,67.76
2018-12-24T13:26:35.294Z,67.56
2018-12-24T13:29:07.438Z,67.55
2018-12-24T13:31:52.604Z,66.88
2018-12-24T13:34:35.679Z,67.12
2018-12-24T13:37:10.968Z,65.65
2018-12-24T13:39:57.644Z,65.65
2018-12-24T13:42:38.492Z,65.52
2018-12-24T13:45:48.267Z,65.52
2018-12-24T13:48:58.423Z,65.39
2018-12-24T13:51:50.417Z,65.00
2018-12-24T13:55:01.441Z,64.51
2018-12-24T14:04:12.633Z,64.97
2018-12-24T14:07:19.581Z,64.69
2018-12-24T14:10:24.508Z,64.90
2018-12-24T14:13:03.427Z,65.08
2018-12-24T14:15:39.119Z,64.85
2018-12-24T14:18:16.837Z,64.85
2018-12-24T14:21:21.597Z,64.19
2018-12-24T14:24:04.655Z,64.50
2018-12-24T14:26:56.488Z,64.50
2018-12-24T14:29:58.038Z,64.35
2018-12-24T14:32:38.429Z,64.92
2018-12-24T14:35:13.230Z,64.99
2018-12-24T14:37:57.434Z,65.17
2018-12-24T14:40:38.019Z,64.26
2018-12-24T14:43:18.938Z,64.26
2018-12-24T14:46:07.013Z,63.67
2018-12-24T14:48:50.316Z,63.21
2018-12-24T14:51:30.812Z,63.43
2018-12-24T14:54:15.515Z,63.74
2018-12-24T14:57:17.384Z,63.48
2018-12-24T15:00:07.018Z,63.66
2018-12-24T15:03:08.814Z,63.24
2018-12-24T15:05:51.315Z,63.24
2018-12-24T15:08:41.137Z,63.37
2018-12-24T15:12:02.936Z,63.28
2018-12-24T15:15:26.677Z,62.84
2018-12-24T15:18:42.294Z,62.58
2018-12-24T15:24:39.889Z,62.20
2018-12-24T15:27:39.917Z,62.62
2018-12-24T15:30:45.234Z,62.88
2018-12-24T15:33:15.406Z,62.59
2018-12-24T15:36:03.422Z,62.59
2018-12-24T15:39:05.789Z,62.32
2018-12-24T15:42:12.249Z,62.32
2018-12-24T15:45:02.802Z,61.52
2018-12-24T15:47:48.284Z,61.67
2018-12-24T15:50:32.664Z,61.63
2018-12-24T15:53:25.437Z,61.69
2018-12-24T15:56:06.045Z,61.69
2018-12-24T15:58:57.309Z,61.77
2018-12-24T16:01:53.016Z,61.77
2018-12-24T16:05:01.338Z,62.05
2018-12-24T16:07:51.304Z,61.97
2018-12-24T16:10:41.898Z,62.22
2018-12-24T16:13:29.300Z,62.12
2018-12-24T16:16:06.410Z,62.11
2018-12-24T16:18:47.961Z,62.71
2018-12-24T16:21:29.967Z,62.71
2018-12-24T16:24:21.976Z,62.43
2018-12-24T16:27:17.357Z,62.68
2018-12-24T16:30:05.796Z,62.48
2018-12-24T16:33:05.494Z,62.83
2018-12-24T16:35:46.062Z,62.62
2018-12-24T16:38:45.300Z,63.61
2018-12-24T16:41:39.581Z,63.07
2018-12-24T16:44:20.584Z,62.85
2018-12-24T16:47:35.752Z,62.45
2018-12-24T16:50:11.787Z,62.85
2018-12-24T16:53:09.626Z,63.04
2018-12-24T16:56:02.068Z,62.57
2018-12-24T16:58:55.259Z,62.57
2018-12-24T17:01:54.254Z,62.54
2018-12-24T17:04:40.870Z,62.62
2018-12-24T17:07:22.545Z,62.90
2018-12-24T17:10:36.323Z,62.61
2018-12-24T17:13:23.797Z,62.62
2018-12-24T17:16:20.311Z,62.95
2018-12-24T17:19:31.115Z,62.56
2018-12-24T17:21:52.213Z,62.68
2018-12-24T17:25:16.763Z,62.71
2018-12-24T17:28:41.620Z,62.88
2018-12-24T17:32:47.589Z,62.92
2018-12-24T17:35:02.110Z,62.92
2018-12-24T17:37:39.275Z,62.71
2018-12-24T17:40:25.978Z,63.01
2018-12-24T17:43:21.425Z,63.01
2018-12-24T17:46:15.699Z,62.81
2018-12-24T17:49:32.575Z,63.06
2018-12-24T17:52:21.487Z,62.85
2018-12-24T17:55:11.373Z,63.02
2018-12-24T17:58:12.810Z,63.23
2018-12-24T18:01:15.490Z,63.23
2018-12-24T18:04:11.370Z,63.21
2018-12-24T18:07:03.606Z,63.50
2018-12-24T18:10:00.847Z,63.56
2018-12-24T18:12:52.026Z,63.56
2018-12-24T18:15:54.979Z,64.02
2018-12-24T18:18:43.501Z,63.69
2018-12-24T18:21:39.384Z,63.69
2018-12-24T18:24:22.628Z,63.71
2018-12-24T18:27:08.030Z,63.86
2018-12-24T18:30:13.667Z,63.81
2018-12-24T18:33:02.580Z,63.32
2018-12-24T18:35:48.293Z,63.01
2018-12-24T18:38:30.149Z,62.82
2018-12-24T18:41:12.435Z,62.82
2018-12-24T18:44:04.163Z,62.17
2018-12-24T18:46:45.044Z,62.17
2018-12-24T18:49:43.719Z,61.52
2018-12-24T18:52:38.978Z,61.21
2018-12-24T18:55:26.542Z,60.74
2018-12-24T18:58:10.137Z,60.63
2018-12-24T19:00:57.358Z,60.24
2018-12-24T19:03:26.952Z,60.24
2018-12-24T19:06:00.926Z,60.17
2018-12-24T19:08:33.368Z,60.08
2018-12-24T19:11:05.677Z,60.56
2018-12-24T19:13:37.772Z,60.56
2018-12-24T19:16:09.947Z,60.08
2018-12-24T19:18:42.270Z,59.77
2018-12-24T19:21:13.023Z,59.04
2018-12-24T19:23:52.287Z,59.19
2018-12-24T19:26:24.453Z,59.57
2018-12-24T19:28:58.727Z,59.63
2018-12-24T19:31:30.667Z,59.36
2018-12-24T19:34:02.854Z,59.61
2018-12-24T19:36:35.110Z,59.61
2018-12-24T19:39:09.287Z,60.21
2018-12-24T19:41:41.286Z,60.84
2018-12-24T19:44:13.281Z,60.94
2018-12-24T19:46:44.012Z,61.02
2018-12-24T19:49:16.157Z,61.02
2018-12-24T19:51:46.856Z,61.37
2018-12-24T19:54:18.948Z,61.33
2018-12-24T19:56:51.251Z,61.33
2018-12-24T19:59:23.412Z,61.88
2018-12-24T20:01:55.345Z,62.60
2018-12-24T20:04:27.364Z,62.60
2018-12-24T20:06:59.405Z,63.30
2018-12-24T20:09:31.625Z,63.30
2018-12-24T20:12:07.124Z,63.89
2018-12-24T20:14:37.857Z,64.29
2018-12-24T20:17:12.100Z,64.17
2018-12-24T20:19:44.352Z,64.25
2018-12-24T20:22:15.094Z,65.05
2018-12-24T20:24:47.964Z,65.63
2018-12-24T20:27:20.136Z,65.18
2018-12-24T20:29:50.999Z,65.18
2018-12-24T20:32:23.295Z,65.14
2018-12-24T20:34:54.284Z,65.22
2018-12-24T20:37:26.751Z,65.05
2018-12-24T20:39:59.121Z,65.05
2018-12-24T20:42:31.282Z,65.14
2018-12-24T20:45:03.334Z,65.37
2018-12-24T20:47:36.381Z,65.39
2018-12-24T20:50:08.654Z,65.38
2018-12-24T20:52:40.864Z,65.38
2018-12-24T20:55:13.283Z,65.29
2018-12-24T20:57:44.367Z,65.21
2018-12-24T21:00:16.375Z,65.17
2018-12-24T21:02:48.754Z,64.87
2018-12-24T21:05:21.138Z,64.87
2018-12-24T21:07:53.288Z,64.90
2018-12-24T21:10:24.027Z,64.79
2018-12-24T21:12:56.432Z,65.10
2018-12-24T21:15:28.909Z,65.04
2018-12-24T21:18:00.946Z,64.76
2018-12-24T21:20:33.143Z,64.73
2018-12-24T21:23:05.288Z,65.10
2018-12-24T21:25:35.898Z,65.06
2018-12-24T21:28:08.357Z,65.31
2018-12-24T21:30:39.414Z,65.98
2018-12-24T21:33:11.645Z,66.89
2018-12-24T21:35:43.934Z,67.28
2018-12-24T21:38:16.281Z,67.55
2018-12-24T21:40:47.063Z,68.07
2018-12-24T21:43:19.283Z,68.07
2018-12-24T21:45:49.867Z,68.03
2018-12-24T21:48:23.961Z,68.24
2018-12-24T21:53:24.912Z,69.16
2018-12-24T21:55:57.221Z,69.63
2018-12-24T21:58:28.045Z,69.63
2018-12-24T22:02:44.669Z,70.00
2018-12-24T22:05:16.747Z,69.97
2018-12-24T22:07:49.271Z,69.88
2018-12-24T22:10:19.791Z,69.55
2018-12-24T22:12:52.250Z,68.91
2018-12-24T22:15:23.058Z,68.66
2018-12-24T22:17:55.205Z,68.44
2018-12-24T22:20:26.003Z,68.56
2018-12-24T22:22:59.939Z,68.33
2018-12-24T22:25:34.003Z,68.41
2018-12-24T22:28:06.277Z,68.79
2018-12-24T22:30:36.697Z,68.93
2018-12-24T22:33:08.877Z,68.89
2018-12-24T22:35:41.273Z,68.74
2018-12-24T22:38:12.269Z,68.82
2018-12-24T22:40:42.857Z,69.40
2018-12-24T22:43:14.945Z,69.79
2018-12-24T22:45:47.108Z,70.07
2018-12-24T22:48:19.271Z,69.92
2018-12-24T22:50:51.266Z,69.59
2018-12-24T22:53:22.044Z,70.02
2018-12-24T22:55:54.279Z,70.02
2018-12-24T22:58:25.061Z,69.63
2018-12-24T23:00:57.280Z,69.19
2018-12-24T23:03:27.850Z,68.38
2018-12-24T23:06:00.250Z,68.38
2018-12-24T23:08:30.963Z,68.66
2018-12-24T23:11:03.279Z,69.18
2018-12-24T23:13:35.291Z,69.48
2018-12-24T23:16:07.300Z,69.46
2018-12-24T23:18:39.265Z,69.25
2018-12-24T23:21:09.807Z,69.50
2018-12-24T23:23:41.943Z,69.77
2018-12-24T23:26:14.086Z,70.03
2018-12-24T23:28:46.357Z,69.97
2018-12-24T23:31:18.573Z,70.19
2018-12-24T23:33:50.774Z,70.19
2018-12-24T23:36:22.869Z,70.19
2018-12-24T23:38:54.936Z,70.52
2018-12-24T23:41:26.940Z,70.54
2018-12-24T23:43:59.104Z,70.30
2018-12-24T23:46:31.296Z,69.91
2018-12-24T23:49:03.291Z,70.18
2018-12-24T23:51:33.860Z,70.03
2018-12-24T23:54:06.098Z,70.08
2018-12-24T23:56:38.256Z,70.01
2018-12-24T23:59:09.005Z,69.94
